Time;durP1;ratioP1;P1;durP2;ratioP2;P2;SDS_P1;SDS_P2;PMS_P1;PMS_P2;Temp;Humidity;BMP_temperature;BMP_pressure;BME280_temperature;BME280_humidity;BME280_pressure;Samples;Min_cycle;Max_cycle;Signal;HPM_P1;HPM_P2
2021/06/10 00:01:24;;;;;;;;;;;18.80;99.90;;;;;;5096740;28;20259;-84
2021/06/10 00:03:50;;;;;;;;;;;18.80;99.90;;;;;;5096689;28;20367;-84
2021/06/10 00:06:16;;;;;;;;;;;18.70;99.90;;;;;;5096603;28;20370;-84
2021/06/10 00:08:42;;;;;;;;;;;18.70;99.90;;;;;;5096443;28;19924;-84
2021/06/10 00:11:10;;;;;;;;;;;18.70;99.90;;;;;;5096441;28;19923;-84
2021/06/10 00:13:37;;;;;;;;;;;18.70;99.90;;;;;;5096561;28;19924;-84
2021/06/10 00:16:03;;;;;;;;;;;18.70;99.90;;;;;;5096535;28;20267;-84
2021/06/10 00:18:29;;;;;;;;;;;18.70;99.90;;;;;;5096682;28;19924;-84
2021/06/10 00:20:56;;;;;;;;;;;18.60;99.90;;;;;;5096444;28;19932;-84
2021/06/10 00:23:22;;;;;;;;;;;18.60;99.90;;;;;;5096230;28;20041;-84
2021/06/10 00:25:49;;;;;;;;;;;18.60;99.90;;;;;;5096317;28;19931;-89
2021/06/10 00:28:16;;;;;;;;;;;18.60;99.90;;;;;;5096408;28;19924;-84
2021/06/10 00:30:43;;;;;;;;;;;18.60;99.90;;;;;;5096015;28;19946;-84
2021/06/10 00:33:10;;;;;;;;;;;18.60;99.90;;;;;;5096034;28;20271;-84
2021/06/10 00:35:36;;;;;;;;;;;18.60;99.90;;;;;;5095998;28;20359;-84
2021/06/10 00:38:02;;;;;;;;;;;18.60;99.90;;;;;;5095892;28;19984;-84
2021/06/10 00:40:30;;;;;;;;;;;18.50;99.90;;;;;;5095833;28;19924;-84
2021/06/10 00:42:57;;;;;;;;;;;18.50;99.90;;;;;;5096038;28;20030;-84
2021/06/10 00:45:25;;;;;;;;;;;18.50;99.90;;;;;;5095946;28;20019;-84
2021/06/10 00:47:51;;;;;;;;;;;18.50;99.90;;;;;;5095795;28;20092;-84
2021/06/10 00:50:18;;;;;;;;;;;18.50;99.90;;;;;;5095865;28;19935;-84
2021/06/10 00:52:44;;;;;;;;;;;18.50;99.90;;;;;;5095785;28;19934;-84
2021/06/10 00:55:11;;;;;;;;;;;18.40;99.90;;;;;;5095541;28;20348;-83
2021/06/10 00:57:37;;;;;;;;;;;18.50;99.90;;;;;;5095849;28;20324;-84
2021/06/10 01:00:04;;;;;;;;;;;18.40;99.90;;;;;;5095500;28;20424;-84
2021/06/10 01:02:31;;;;;;;;;;;18.40;99.90;;;;;;5095730;28;19924;-84
2021/06/10 01:04:58;;;;;;;;;;;18.40;99.90;;;;;;5095455;28;20272;-84
2021/06/10 01:07:25;;;;;;;;;;;18.40;99.90;;;;;;5095395;28;19935;-84
2021/06/10 01:09:52;;;;;;;;;;;18.30;99.90;;;;;;5095496;28;20018;-85
2021/06/10 01:12:19;;;;;;;;;;;18.40;99.90;;;;;;5095694;28;20222;-84
2021/06/10 01:14:49;;;;;;;;;;;18.40;99.90;;;;;;5095646;28;19924;-85
2021/06/10 01:17:15;;;;;;;;;;;18.30;99.90;;;;;;5095447;28;19924;-83
2021/06/10 01:19:51;;;;;;;;;;;18.30;99.90;;;;;;5095190;28;19924;-83
2021/06/10 01:22:18;;;;;;;;;;;18.30;99.90;;;;;;5095400;28;19932;-83
2021/06/10 01:24:45;;;;;;;;;;;18.20;99.90;;;;;;5095144;28;20321;-83
2021/06/10 01:27:20;;;;;;;;;;;18.20;99.90;;;;;;5095398;28;20266;-83
2021/06/10 01:29:46;;;;;;;;;;;18.20;99.90;;;;;;5095336;28;19935;-83
2021/06/10 01:32:13;;;;;;;;;;;18.20;99.90;;;;;;5095356;28;19924;-78
2021/06/10 01:34:39;;;;;;;;;;;18.20;99.90;;;;;;5096286;28;20344;-82
2021/06/10 01:37:05;;;;;;;;;;;18.20;99.90;;;;;;5099360;28;19950;-84
2021/06/10 01:39:32;;;;;;;;;;;18.20;99.90;;;;;;5099355;28;19989;-84
2021/06/10 01:41:58;;;;;;;;;;;18.20;99.90;;;;;;5099654;28;19924;-84
2021/06/10 01:44:26;;;;;;;;;;;18.20;99.90;;;;;;5099311;28;19934;-85
2021/06/10 01:46:52;;;;;;;;;;;18.20;99.90;;;;;;5099095;28;19928;-85
2021/06/10 01:49:18;;;;;;;;;;;18.20;99.90;;;;;;5099383;28;19924;-85
2021/06/10 01:51:45;;;;;;;;;;;18.20;99.90;;;;;;5099086;28;19924;-84
2021/06/10 01:54:11;;;;;;;;;;;18.20;99.90;;;;;;5099151;28;20022;-84
2021/06/10 01:56:37;;;;;;;;;;;18.10;99.90;;;;;;5099177;28;19924;-84
2021/06/10 01:59:04;;;;;;;;;;;18.10;99.90;;;;;;5098816;28;20019;-85
2021/06/10 02:01:31;;;;;;;;;;;18.10;99.90;;;;;;5098844;28;20343;-84
2021/06/10 02:03:58;;;;;;;;;;;18.10;99.90;;;;;;5098870;28;19924;-84
2021/06/10 02:06:24;;;;;;;;;;;18.10;99.90;;;;;;5099345;28;19928;-85
2021/06/10 02:08:51;;;;;;;;;;;18.10;99.90;;;;;;5098912;28;19924;-83
2021/06/10 02:11:17;;;;;;;;;;;18.10;99.90;;;;;;5098933;28;19924;-83
2021/06/10 02:13:43;;;;;;;;;;;18.10;99.90;;;;;;5099078;28;19973;-83
2021/06/10 02:16:10;;;;;;;;;;;18.10;99.90;;;;;;5098720;28;19955;-83
2021/06/10 02:18:40;;;;;;;;;;;18.10;99.90;;;;;;5098915;28;19934;-83
2021/06/10 02:21:06;;;;;;;;;;;18.00;99.90;;;;;;5098472;28;19973;-83
2021/06/10 02:23:35;;;;;;;;;;;18.00;99.90;;;;;;5098632;28;19935;-82
2021/06/10 02:26:01;;;;;;;;;;;18.00;99.90;;;;;;5098645;28;19957;-83
2021/06/10 02:28:27;;;;;;;;;;;18.00;99.90;;;;;;5098488;28;19976;-83
2021/06/10 02:30:54;;;;;;;;;;;18.00;99.90;;;;;;5098492;28;19931;-83
2021/06/10 02:33:20;;;;;;;;;;;18.00;99.90;;;;;;5098461;28;19924;-83
2021/06/10 02:35:48;;;;;;;;;;;18.00;99.90;;;;;;5098237;28;19934;-83
2021/06/10 02:38:14;;;;;;;;;;;18.00;99.90;;;;;;5098418;28;19924;-83
2021/06/10 02:40:41;;;;;;;;;;;18.00;99.90;;;;;;5097997;28;20248;-83
2021/06/10 02:43:07;;;;;;;;;;;18.00;99.90;;;;;;5097989;28;19931;-83
2021/06/10 02:45:34;;;;;;;;;;;18.00;99.90;;;;;;5097541;28;19924;-83
2021/06/10 02:48:00;;;;;;;;;;;18.00;99.90;;;;;;5097370;28;19924;-85
2021/06/10 02:50:27;;;;;;;;;;;18.00;99.90;;;;;;5098099;28;19932;-85
2021/06/10 02:52:54;;;;;;;;;;;17.90;99.90;;;;;;5098065;28;19924;-85
2021/06/10 02:55:21;;;;;;;;;;;18.00;99.90;;;;;;5097793;28;19931;-84
2021/06/10 02:57:48;;;;;;;;;;;17.90;99.90;;;;;;5098177;28;19935;-85
2021/06/10 03:00:16;;;;;;;;;;;17.90;99.90;;;;;;5097821;28;20366;-85
2021/06/10 03:02:42;;;;;;;;;;;17.90;99.90;;;;;;5097848;28;20375;-85
2021/06/10 03:05:09;;;;;;;;;;;17.90;99.90;;;;;;5097601;28;19925;-85
2021/06/10 03:07:36;;;;;;;;;;;17.90;99.90;;;;;;5097808;28;19934;-85
2021/06/10 03:10:04;;;;;;;;;;;17.90;99.90;;;;;;5097856;28;19938;-85
2021/06/10 03:12:30;;;;;;;;;;;17.90;99.90;;;;;;5097686;28;19924;-83
2021/06/10 03:14:57;;;;;;;;;;;17.80;99.90;;;;;;5097485;28;20275;-82
2021/06/10 03:17:23;;;;;;;;;;;17.80;99.90;;;;;;5097395;28;19943;-83
2021/06/10 03:19:49;;;;;;;;;;;17.80;99.90;;;;;;5097501;28;19924;-83
2021/06/10 03:22:16;;;;;;;;;;;17.80;99.90;;;;;;5097376;28;19931;-82
2021/06/10 03:24:42;;;;;;;;;;;17.80;99.90;;;;;;5097723;28;19938;-82
2021/06/10 03:27:10;;;;;;;;;;;17.80;99.90;;;;;;5097539;28;19924;-83
2021/06/10 03:29:36;;;;;;;;;;;17.70;99.90;;;;;;5097182;28;19924;-82
2021/06/10 03:32:03;;;;;;;;;;;17.70;99.90;;;;;;5097032;28;19928;-82
2021/06/10 03:34:29;;;;;;;;;;;17.60;99.90;;;;;;5097022;28;19924;-82
2021/06/10 03:36:56;;;;;;;;;;;17.60;99.90;;;;;;5097020;28;20229;-82
2021/06/10 03:39:23;;;;;;;;;;;17.60;99.90;;;;;;5097437;28;19928;-82
2021/06/10 03:41:49;;;;;;;;;;;17.50;99.90;;;;;;5096825;28;19979;-82
2021/06/10 03:44:17;;;;;;;;;;;17.50;99.90;;;;;;5097065;28;19924;-83
2021/06/10 03:46:44;;;;;;;;;;;17.40;99.90;;;;;;5096874;28;19924;-83
2021/06/10 03:49:10;;;;;;;;;;;17.40;99.90;;;;;;5097111;28;19928;-82
2021/06/10 03:51:37;;;;;;;;;;;17.40;99.90;;;;;;5096720;28;19924;-83
2021/06/10 03:54:04;;;;;;;;;;;17.50;99.90;;;;;;5096727;28;19924;-83
2021/06/10 03:56:30;;;;;;;;;;;17.50;99.90;;;;;;5096914;28;19924;-83
2021/06/10 03:58:57;;;;;;;;;;;17.50;99.90;;;;;;5096188;28;19981;-83
2021/06/10 04:01:25;;;;;;;;;;;17.50;99.90;;;;;;5096449;28;19924;-81
2021/06/10 04:03:51;;;;;;;;;;;17.40;99.90;;;;;;5096465;28;20350;-82
2021/06/10 04:06:19;;;;;;;;;;;17.50;99.90;;;;;;5096607;28;19924;-82
2021/06/10 04:08:45;;;;;;;;;;;17.50;99.90;;;;;;5096740;28;19950;-82
2021/06/10 04:11:11;;;;;;;;;;;17.50;99.90;;;;;;5096627;28;19924;-82
2021/06/10 04:13:38;;;;;;;;;;;17.50;99.90;;;;;;5096627;28;19947;-82
2021/06/10 04:16:04;;;;;;;;;;;17.50;99.90;;;;;;5096298;28;20360;-82
2021/06/10 04:18:32;;;;;;;;;;;17.50;99.90;;;;;;5096396;28;20332;-82
2021/06/10 04:20:58;;;;;;;;;;;17.50;99.90;;;;;;5096139;28;19924;-82
2021/06/10 04:23:25;;;;;;;;;;;17.50;99.90;;;;;;5096380;28;19930;-82
2021/06/10 04:25:51;;;;;;;;;;;17.50;99.90;;;;;;5095803;28;19924;-82
2021/06/10 04:28:17;;;;;;;;;;;17.50;99.90;;;;;;5095774;28;19934;-82
2021/06/10 04:30:44;;;;;;;;;;;17.50;99.90;;;;;;5096115;28;19931;-83
2021/06/10 04:33:10;;;;;;;;;;;17.50;99.90;;;;;;5096179;28;19928;-82
2021/06/10 04:35:38;;;;;;;;;;;17.50;99.90;;;;;;5096062;28;19924;-82
2021/06/10 04:38:04;;;;;;;;;;;17.50;99.90;;;;;;5096007;28;19947;-83
2021/06/10 04:40:30;;;;;;;;;;;17.60;99.90;;;;;;5095931;28;20283;-84
2021/06/10 04:42:57;;;;;;;;;;;17.60;99.90;;;;;;5095936;28;19924;-78
2021/06/10 04:45:23;;;;;;;;;;;17.60;99.90;;;;;;5096026;28;19925;-76
2021/06/10 04:47:49;;;;;;;;;;;17.60;99.90;;;;;;5095907;28;19961;-76
2021/06/10 04:50:16;;;;;;;;;;;17.60;99.90;;;;;;5095709;28;20256;-76
2021/06/10 04:52:44;;;;;;;;;;;17.60;99.90;;;;;;5095684;28;19939;-76
2021/06/10 04:55:10;;;;;;;;;;;17.60;99.90;;;;;;5095636;28;19977;-76
2021/06/10 04:57:37;;;;;;;;;;;17.60;99.90;;;;;;5095686;28;19934;-77
2021/06/10 05:00:04;;;;;;;;;;;17.60;99.90;;;;;;5095537;28;19924;-78
2021/06/10 05:02:30;;;;;;;;;;;17.70;99.90;;;;;;5095567;28;19931;-76
2021/06/10 05:04:56;;;;;;;;;;;17.70;99.90;;;;;;5095690;28;20017;-76
2021/06/10 05:07:22;;;;;;;;;;;17.70;99.90;;;;;;5095553;28;20255;-76
2021/06/10 05:09:50;;;;;;;;;;;17.70;99.90;;;;;;5094645;28;20370;-76
2021/06/10 05:12:17;;;;;;;;;;;17.80;99.90;;;;;;5094836;28;19924;-76
2021/06/10 05:14:43;;;;;;;;;;;17.80;99.90;;;;;;5095390;28;19924;-78
2021/06/10 05:17:09;;;;;;;;;;;17.80;99.90;;;;;;5095448;28;20013;-77
2021/06/10 05:19:36;;;;;;;;;;;17.80;99.90;;;;;;5095500;28;19946;-78
2021/06/10 05:22:02;;;;;;;;;;;17.90;99.90;;;;;;5095473;28;20260;-78
2021/06/10 05:24:28;;;;;;;;;;;17.90;99.90;;;;;;5095325;28;19946;-78
2021/06/10 05:26:56;;;;;;;;;;;17.90;99.90;;;;;;5095467;28;19928;-78
2021/06/10 05:29:22;;;;;;;;;;;18.00;99.90;;;;;;5095484;28;19932;-78
2021/06/10 05:31:49;;;;;;;;;;;18.00;99.90;;;;;;5095597;28;19924;-78
2021/06/10 05:34:15;;;;;;;;;;;18.00;99.90;;;;;;5095499;28;19924;-78
2021/06/10 05:36:41;;;;;;;;;;;18.00;99.90;;;;;;5095355;28;19950;-78
2021/06/10 05:39:08;;;;;;;;;;;18.10;99.90;;;;;;5095262;28;20370;-78
2021/06/10 05:41:34;;;;;;;;;;;18.10;99.90;;;;;;5095101;28;19942;-78
2021/06/10 05:44:02;;;;;;;;;;;18.10;99.90;;;;;;5095398;28;19925;-78
2021/06/10 05:46:28;;;;;;;;;;;18.10;99.90;;;;;;5095039;28;20355;-77
2021/06/10 05:48:54;;;;;;;;;;;18.10;99.90;;;;;;5095090;28;19977;-78
2021/06/10 05:51:21;;;;;;;;;;;18.10;99.90;;;;;;5095225;28;19924;-78
2021/06/10 05:53:47;;;;;;;;;;;18.10;99.90;;;;;;5095524;28;19946;-78
2021/06/10 05:56:13;;;;;;;;;;;18.20;99.90;;;;;;5095239;28;20316;-78
2021/06/10 05:58:40;;;;;;;;;;;18.20;99.90;;;;;;5094826;28;19935;-78
2021/06/10 06:01:07;;;;;;;;;;;18.20;99.90;;;;;;5095318;28;19924;-78
2021/06/10 06:03:34;;;;;;;;;;;18.20;99.90;;;;;;5095124;28;19924;-78
2021/06/10 06:06:00;;;;;;;;;;;18.20;99.90;;;;;;5095048;28;19951;-78
2021/06/10 06:08:26;;;;;;;;;;;18.20;99.90;;;;;;5095011;28;19932;-78
2021/06/10 06:10:54;;;;;;;;;;;18.20;99.90;;;;;;5094828;28;19936;-78
2021/06/10 06:13:22;;;;;;;;;;;18.20;99.90;;;;;;5095001;28;19924;-78
2021/06/10 06:15:50;;;;;;;;;;;18.20;99.90;;;;;;5095076;28;19932;-78
2021/06/10 06:18:19;;;;;;;;;;;18.10;99.90;;;;;;5095004;28;19932;-78
2021/06/10 06:20:45;;;;;;;;;;;18.10;99.90;;;;;;5095785;28;19924;-78
2021/06/10 06:23:11;;;;;;;;;;;18.20;99.90;;;;;;5098598;28;19935;-78
2021/06/10 06:25:38;;;;;;;;;;;18.10;99.90;;;;;;5098605;28;19924;-78
2021/06/10 06:28:04;;;;;;;;;;;18.10;99.90;;;;;;5098447;28;20049;-78
2021/06/10 06:30:31;;;;;;;;;;;18.10;99.90;;;;;;5098766;28;19949;-78
2021/06/10 06:32:57;;;;;;;;;;;18.20;99.90;;;;;;5098248;28;19924;-78
2021/06/10 06:35:25;;;;;;;;;;;18.20;99.90;;;;;;5098394;28;19928;-78
2021/06/10 06:37:51;;;;;;;;;;;18.20;99.90;;;;;;5098445;28;19977;-78
2021/06/10 06:40:19;;;;;;;;;;;18.20;99.90;;;;;;5098326;28;19939;-78
2021/06/10 06:42:45;;;;;;;;;;;18.20;99.90;;;;;;5098419;28;19964;-78
2021/06/10 06:45:12;;;;;;;;;;;18.30;99.90;;;;;;5098182;28;20348;-78
2021/06/10 06:47:38;;;;;;;;;;;18.30;99.90;;;;;;5098311;28;19932;-78
2021/06/10 06:50:05;;;;;;;;;;;18.30;99.90;;;;;;5098200;28;19924;-78
2021/06/10 06:52:32;;;;;;;;;;;18.30;99.90;;;;;;5098007;28;20352;-78
2021/06/10 06:54:59;;;;;;;;;;;18.30;99.90;;;;;;5098032;28;19924;-78
2021/06/10 06:57:25;;;;;;;;;;;18.40;99.90;;;;;;5098588;28;19924;-78
2021/06/10 06:59:51;;;;;;;;;;;18.50;99.90;;;;;;5097874;28;19924;-78
2021/06/10 07:02:18;;;;;;;;;;;18.70;99.90;;;;;;5097962;28;19935;-78
2021/06/10 07:04:44;;;;;;;;;;;18.80;99.90;;;;;;5098077;28;19960;-78
2021/06/10 07:07:11;;;;;;;;;;;18.90;99.90;;;;;;5097800;28;20298;-78
2021/06/10 07:09:38;;;;;;;;;;;19.00;99.90;;;;;;5097627;28;20344;-78
2021/06/10 07:12:05;;;;;;;;;;;19.10;99.90;;;;;;5097907;28;19924;-78
2021/06/10 07:14:31;;;;;;;;;;;19.20;99.90;;;;;;5097740;28;19934;-78
2021/06/10 07:16:58;;;;;;;;;;;19.20;99.90;;;;;;5097728;28;19925;-78
2021/06/10 07:19:25;;;;;;;;;;;19.30;99.90;;;;;;5097592;28;19926;-78
2021/06/10 07:21:51;;;;;;;;;;;19.20;99.90;;;;;;5097391;28;19946;-78
2021/06/10 07:24:18;;;;;;;3.65;0.50;;;19.30;99.90;;;;;;5096079;28;20456;-78
2021/06/10 07:26:46;;;;;;;8.00;0.80;;;19.20;99.90;;;;;;5097241;28;20055;-78
2021/06/10 07:29:12;;;;;;;6.32;0.50;;;19.10;99.90;;;;;;5097017;28;20289;-78
2021/06/10 07:31:39;;;;;;;0.57;0.40;;;19.20;99.90;;;;;;5096602;28;20372;-78
2021/06/10 07:34:06;;;;;;;;;;;19.20;99.90;;;;;;5096879;28;20112;-78
2021/06/10 07:36:32;;;;;;;;;;;19.20;99.90;;;;;;5097216;28;19958;-78
2021/06/10 07:38:59;;;;;;;;;;;19.30;99.90;;;;;;5097112;28;19934;-78
2021/06/10 07:41:25;;;;;;;;;;;19.30;99.90;;;;;;5097001;28;19924;-78
2021/06/10 07:43:53;;;;;;;;;;;19.20;99.90;;;;;;5097150;28;19934;-78
2021/06/10 07:46:20;;;;;;;;;;;19.20;99.90;;;;;;5097032;28;20348;-78
2021/06/10 07:48:46;;;;;;;;;;;19.30;99.90;;;;;;5097180;28;19932;-78
2021/06/10 07:51:12;;;;;;;;;;;19.30;99.90;;;;;;5096948;28;19924;-78
2021/06/10 07:53:39;;;;;;;;;;;19.50;99.90;;;;;;5096832;28;19924;-78
2021/06/10 07:56:05;;;;;;;;;;;19.80;99.90;;;;;;5096932;28;19931;-78
2021/06/10 07:58:32;;;;;;;;;;;19.90;99.90;;;;;;5096737;28;19935;-78
2021/06/10 08:00:59;;;;;;;;;;;19.90;99.90;;;;;;5096703;28;19924;-78
2021/06/10 08:03:26;;;;;;;;;;;20.00;99.90;;;;;;5096659;28;20241;-78
2021/06/10 08:05:52;;;;;;;;;;;20.20;99.90;;;;;;5096692;28;19924;-78
2021/06/10 08:08:19;;;;;;;;;;;20.30;99.90;;;;;;5096713;28;19928;-78
2021/06/10 08:10:45;;;;;;;;;;;20.30;99.90;;;;;;5096831;28;20001;-78
2021/06/10 08:13:12;;;;;;;;;;;20.20;99.90;;;;;;5096531;28;19972;-78
2021/06/10 08:15:38;;;;;;;;;;;20.00;99.90;;;;;;5096727;28;19924;-78
2021/06/10 08:18:06;;;;;;;;;;;19.90;99.90;;;;;;5096512;28;20010;-78
2021/06/10 08:20:32;;;;;;;;;;;19.80;99.90;;;;;;5096174;28;20336;-78
2021/06/10 08:22:59;;;;;;;;;;;19.70;99.90;;;;;;5096445;28;19925;-78
2021/06/10 08:25:28;;;;;;;;;;;19.70;99.90;;;;;;5096424;28;20332;-78
2021/06/10 08:27:54;;;;;;;;;;;19.60;99.90;;;;;;5096196;28;20356;-78
2021/06/10 08:30:21;;;;;;;;;;;19.60;99.90;;;;;;5096076;28;19932;-78
2021/06/10 08:32:47;;;;;;;;;;;19.70;99.90;;;;;;5096384;28;19935;-78
2021/06/10 08:35:15;;;;;;;;;;;19.70;99.90;;;;;;5096329;28;20298;-78
2021/06/10 08:37:41;;;;;;;;;;;19.80;99.90;;;;;;5095914;28;19935;-78
2021/06/10 08:40:08;;;;;;;;;;;19.80;99.90;;;;;;5096237;28;19931;-79
2021/06/10 08:42:36;;;;;;;;;;;19.90;99.90;;;;;;5095772;28;19924;-78
2021/06/10 08:45:03;;;;;;;;;;;20.00;99.90;;;;;;5095883;28;19977;-78
2021/06/10 08:47:29;;;;;;;;;;;20.00;99.90;;;;;;5095991;28;19924;-78
2021/06/10 08:49:55;;;;;;;;;;;20.00;99.90;;;;;;5095847;28;20260;-78
2021/06/10 08:52:23;;;;;;;;;;;20.00;99.90;;;;;;5095714;28;19924;-78
2021/06/10 08:54:49;;;;;;;;;;;20.00;99.90;;;;;;5095967;28;19925;-78
2021/06/10 08:57:16;;;;;;;;;;;19.90;99.90;;;;;;5095763;28;19924;-78
2021/06/10 08:59:42;;;;;;;;;;;19.90;99.90;;;;;;5095589;28;20264;-78
2021/06/10 09:02:08;;;;;;;;;;;19.90;99.90;;;;;;5095486;28;19935;-78
2021/06/10 09:04:35;;;;;;;;;;;19.90;99.90;;;;;;5095459;28;19924;-78
2021/06/10 09:07:03;;;;;;;;;;;19.80;99.90;;;;;;5095766;28;19924;-78
2021/06/10 09:09:35;;;;;;;;;;;19.80;99.90;;;;;;5095750;28;19924;-78
2021/06/10 09:12:05;;;;;;;;;;;19.80;99.90;;;;;;5095599;28;19990;-78
2021/06/10 09:14:31;;;;;;;;;;;19.80;99.90;;;;;;5095380;28;20356;-78
2021/06/10 09:16:57;;;;;;;;;;;19.80;99.90;;;;;;5095333;28;20336;-78
2021/06/10 09:19:24;;;;;;;;;;;19.80;99.90;;;;;;5095309;28;19957;-78
2021/06/10 09:21:56;;;;;;;;;;;19.80;99.90;;;;;;5095057;28;19924;-78
2021/06/10 09:24:24;;;;;;;;;;;19.90;99.90;;;;;;5095353;28;19977;-78
2021/06/10 09:27:02;;;;;;;;;;;19.90;99.90;;;;;;5095412;28;20255;-78
2021/06/10 09:29:34;;;;;;;;;;;20.00;99.90;;;;;;5095245;28;20027;-78
2021/06/10 09:32:01;;;;;;;;;;;20.10;99.90;;;;;;5095278;28;19923;-78
2021/06/10 09:34:30;;;;;;;;;;;20.10;99.90;;;;;;5095154;28;20300;-78
2021/06/10 09:36:56;;;;;;;;;;;20.10;99.90;;;;;;5095332;28;19976;-78
2021/06/10 09:39:23;;;;;;;;;;;20.10;99.90;;;;;;5095223;28;19950;-78
2021/06/10 09:42:01;;;;;;;;;;;20.00;99.90;;;;;;5095091;28;19924;-78
2021/06/10 09:44:37;;;;;;;;;;;20.00;99.90;;;;;;5095172;28;19924;-78
2021/06/10 09:47:04;;;;;;;;;;;19.90;99.90;;;;;;5095209;28;19928;-78
2021/06/10 09:49:30;;;;;;;;;;;20.00;99.90;;;;;;5095412;28;19924;-78
2021/06/10 09:51:56;;;;;;;;;;;19.90;99.90;;;;;;5095274;28;19924;-78
2021/06/10 09:54:37;;;;;;;;;;;19.90;99.90;;;;;;5095105;28;19924;-78
2021/06/10 09:57:05;;;;;;;;;;;19.90;99.90;;;;;;5098654;28;19928;-78
2021/06/10 09:59:51;;;;;;;;;;;19.90;99.90;;;;;;5099198;28;20001;-78
2021/06/10 10:02:18;;;;;;;;;;;19.90;99.90;;;;;;5098993;28;19924;-78
2021/06/10 10:05:01;;;;;;;;;;;19.90;99.90;;;;;;5099022;28;19924;-78
2021/06/10 10:07:28;;;;;;;;;;;19.90;99.90;;;;;;5099002;28;19924;-78
2021/06/10 10:09:56;;;;;;;;;;;19.90;99.90;;;;;;5099024;28;19928;-78
2021/06/10 10:12:23;;;;;;;;;;;19.90;99.90;;;;;;5098954;28;19924;-78
2021/06/10 10:14:50;;;;;;;;;;;20.00;99.90;;;;;;5098853;28;20310;-78
2021/06/10 10:17:16;;;;;;;;;;;20.10;99.90;;;;;;5098830;28;19986;-78
2021/06/10 10:19:43;;;;;;;;;;;20.30;99.90;;;;;;5098564;28;20294;-78
2021/06/10 10:22:12;;;;;;;;;;;20.30;99.90;;;;;;5098510;28;19924;-78
2021/06/10 10:24:38;;;;;;;;;;;20.40;99.90;;;;;;5098627;28;20019;-78
2021/06/10 10:27:05;;;;;;;;;;;20.50;99.90;;;;;;5098439;28;19931;-78
2021/06/10 10:29:33;;;;;;;;;;;20.50;99.90;;;;;;5098562;28;19931;-78
2021/06/10 10:31:59;;;;;;;;;;;20.70;99.90;;;;;;5098323;28;19924;-78
2021/06/10 10:34:27;;;;;;;;;;;20.80;99.90;;;;;;5097830;28;19977;-78
2021/06/10 10:36:54;;;;;;;;;;;20.90;99.90;;;;;;5098403;28;19982;-78
2021/06/10 10:39:28;;;;;;;;;;;21.00;99.90;;;;;;5098489;28;19986;-78
2021/06/10 10:41:54;;;;;;;;;;;21.00;99.90;;;;;;5098449;28;19996;-79
2021/06/10 10:44:24;;;;;;;;;;;21.00;99.90;;;;;;5098329;28;19930;-78
2021/06/10 10:47:06;;;;;;;;;;;21.10;99.90;;;;;;5098125;28;19934;-78
2021/06/10 10:49:39;;;;;;;;;;;21.10;99.90;;;;;;5098140;28;20018;-78
2021/06/10 10:52:26;;;;;;;;;;;21.20;99.90;;;;;;5098185;28;19972;-79
2021/06/10 10:54:52;;;;;;;;;;;21.30;99.90;;;;;;5098043;28;19924;-78
2021/06/10 10:57:38;;;;;;;;;;;21.50;99.90;;;;;;5097989;28;20325;-78
2021/06/10 11:00:05;;;;;;;;;;;21.60;99.90;;;;;;5097685;28;19932;-78
2021/06/10 11:02:36;;;;;;;;;;;21.70;99.90;;;;;;5097634;28;19946;-78
2021/06/10 11:05:04;;;;;;;;;;;21.70;99.90;;;;;;5097926;28;19981;-78
2021/06/10 11:07:50;;;;;;;;;;;21.80;99.90;;;;;;5096210;28;20340;-79
2021/06/10 11:10:19;;;;;;;;;;;22.00;99.90;;;;;;5097865;28;19935;-78
2021/06/10 11:12:51;;;;;;;;;;;22.10;99.90;;;;;;5097463;28;20348;-78
2021/06/10 11:15:36;;;;;;;;;;;22.30;99.90;;;;;;5097148;28;20366;-78
2021/06/10 11:18:07;;;;;;;;;;;22.40;99.90;;;;;;5097440;28;19988;-78
2021/06/10 11:20:40;;;;;;;;;;;22.40;99.90;;;;;;5097701;28;19924;-78
2021/06/10 11:23:10;;;;;;;;;;;22.30;99.90;;;;;;5097373;28;19934;-78
2021/06/10 11:25:43;;;;;;;;;;;22.40;99.90;;;;;;5097530;28;19924;-78
2021/06/10 11:28:10;;;;;;;;;;;22.40;99.90;;;;;;5097352;28;19928;-78
2021/06/10 11:30:38;;;;;;;;;;;22.40;99.90;;;;;;5097508;28;20023;-78
2021/06/10 11:33:06;;;;;;;;;;;22.50;99.90;;;;;;5097101;28;19928;-79
2021/06/10 11:35:37;;;;;;;;;;;22.50;99.90;;;;;;5097411;28;19973;-78
2021/06/10 11:38:03;;;;;;;;;;;22.60;99.90;;;;;;5097412;28;20037;-78
2021/06/10 11:40:30;;;;;;;;;;;22.70;99.90;;;;;;5097121;28;19947;-78
2021/06/10 11:42:56;;;;;;;;;;;22.80;99.90;;;;;;5096943;28;19932;-78
2021/06/10 11:45:26;;;;;;;;;;;22.80;99.90;;;;;;5096899;28;19924;-79
2021/06/10 11:47:52;;;;;;;;;;;22.90;99.90;;;;;;5097230;28;19964;-78
2021/06/10 11:50:24;;;;;;;;;;;23.00;99.90;;;;;;5097158;28;19924;-78
2021/06/10 11:52:51;;;;;;;;;;;23.00;99.90;;;;;;5096869;28;20245;-78
2021/06/10 11:55:18;;;;;;;;;;;22.90;99.90;;;;;;5096889;28;19930;-78
2021/06/10 11:57:44;;;;;;;;;;;23.00;99.90;;;;;;5096672;28;20119;-78
2021/06/10 12:00:11;;;;;;;;;;;23.00;99.90;;;;;;5095993;28;19928;-78
2021/06/10 12:02:37;;;;;;;;;;;23.00;99.90;;;;;;5096383;28;19924;-79
2021/06/10 12:05:07;;;;;;;;;;;22.90;99.90;;;;;;5096754;28;19924;-83
2021/06/10 12:07:35;;;;;;;;;;;22.90;99.90;;;;;;5096741;28;19932;-87
2021/06/10 12:10:09;;;;;;;;;;;22.80;99.90;;;;;;5096612;28;19924;-87
2021/06/10 12:12:38;;;;;;;;;;;22.70;99.90;;;;;;5096372;28;20361;-84
2021/06/10 12:15:05;;;;;;;;;;;22.70;99.90;;;;;;5101646;28;19935;-86
2021/06/10 12:17:46;;;;;;;;;;;22.70;99.90;;;;;;5097873;28;20018;-83
2021/06/10 12:20:16;;;;;;;;;;;22.70;99.90;;;;;;5095937;28;19924;-83
2021/06/10 12:22:44;;;;;;;;;;;22.60;99.90;;;;;;5099040;28;19924;-86
2021/06/10 12:25:14;;;;;;;;;;;22.50;99.90;;;;;;5099328;28;19968;-85
2021/06/10 12:27:41;;;;;;;;;;;22.30;99.90;;;;;;5096113;28;20313;-82
2021/06/10 12:30:20;;;;;;;;;;;22.20;99.90;;;;;;5096072;28;20351;-82
2021/06/10 12:32:46;;;;;;;;;;;22.10;99.90;;;;;;5097447;28;20449;-83
2021/06/10 12:35:13;;;;;;;;;;;22.10;99.90;;;;;;5095940;28;19923;-84
2021/06/10 12:37:39;;;;;;;;;;;22.00;99.90;;;;;;5095973;28;19928;-82
2021/06/10 12:40:08;;;;;;;;;;;22.00;99.90;;;;;;5095939;28;19924;-85
2021/06/10 12:42:34;;;;;;;;;;;22.10;99.90;;;;;;5095271;28;20306;-83
2021/06/10 12:45:01;;;;;;;;;;;22.20;99.90;;;;;;5095682;28;20355;-83
2021/06/10 12:47:30;;;;;;;;;;;22.20;99.90;;;;;;5095925;28;19924;-83
2021/06/10 12:49:57;;;;;;;;;;;22.20;99.90;;;;;;5095832;28;19924;-81
2021/06/10 12:52:24;;;;;;;0.70;0.43;;;22.20;99.90;;;;;;5094864;28;20392;-82
2021/06/10 12:54:56;;;;;;;;;;;22.20;99.90;;;;;;5095902;28;20051;-82
2021/06/10 12:57:24;;;;;;;;;;;22.20;99.90;;;;;;5096258;28;19945;-82
2021/06/10 12:59:54;;;;;;;2.20;0.50;;;22.30;99.90;;;;;;5094399;28;20433;-82
2021/06/10 13:02:21;;;;;;;0.65;0.35;;;22.30;99.90;;;;;;5095161;28;20048;-82
2021/06/10 13:04:48;;;;;;;0.55;0.30;;;22.50;99.90;;;;;;5095101;28;20080;-82
2021/06/10 13:07:32;;;;;;;2.97;0.68;;;22.60;99.90;;;;;;5095262;28;20058;-82
2021/06/10 13:10:00;;;;;;;0.52;0.20;;;22.80;99.90;;;;;;5095333;28;20048;-82
2021/06/10 13:12:28;;;;;;;4.82;0.30;;;22.90;99.90;;;;;;5095191;28;20071;-82
2021/06/10 13:15:06;;;;;;;0.60;0.30;;;22.90;99.90;;;;;;5094862;28;20051;-83
2021/06/10 13:17:53;;;;;;;1.40;0.20;;;22.90;99.90;;;;;;5095268;28;20044;-82
2021/06/10 13:20:56;;;;;;;0.40;0.35;;;23.00;99.90;;;;;;5094818;28;20088;-82
2021/06/10 13:23:24;;;;;;;;;;;23.10;99.90;;;;;;5095416;28;20461;-82
2021/06/10 13:26:04;;;;;;;;;;;23.00;99.90;;;;;;5095349;28;20078;-81
2021/06/10 13:28:32;;;;;;;;;;;23.00;99.90;;;;;;5095245;28;20301;-81
2021/06/10 13:31:14;;;;;;;;;;;23.10;99.90;;;;;;5094561;28;19924;-82
2021/06/10 13:33:41;;;;;;;;;;;23.10;99.90;;;;;;5095347;28;20340;-82
2021/06/10 13:36:14;;;;;;;;;;;23.00;99.90;;;;;;5095138;28;19920;-82
2021/06/10 13:38:40;;;;;;;;;;;23.00;99.90;;;;;;5095546;28;19927;-82
2021/06/10 13:41:06;;;;;;;;;;;23.10;99.90;;;;;;5095095;28;20367;-82
2021/06/10 13:43:35;;;;;;;;;;;23.10;99.90;;;;;;5095333;28;20014;-82
2021/06/10 13:46:01;;;;;;;;;;;23.00;99.90;;;;;;5095309;28;19988;-82
2021/06/10 13:48:27;;;;;;;;;;;23.10;99.90;;;;;;5095364;28;19920;-83
2021/06/10 13:50:54;;;;;;;;;;;23.10;99.90;;;;;;5095523;28;19920;-82
2021/06/10 13:53:20;;;;;;;;;;;23.20;99.90;;;;;;5095201;28;19928;-82
2021/06/10 13:55:46;;;;;;;;;;;23.20;99.90;;;;;;5095397;28;19953;-82
2021/06/10 13:58:14;;;;;;;;;;;23.10;99.90;;;;;;5094984;28;19925;-82
2021/06/10 14:00:41;;;;;;;;;;;23.00;99.90;;;;;;5095137;28;19932;-82
2021/06/10 14:03:08;;;;;;;;;;;23.00;99.90;;;;;;5095188;28;19946;-82
2021/06/10 14:05:34;;;;;;;;;;;22.90;99.90;;;;;;5094935;28;20363;-82
2021/06/10 14:08:02;;;;;;;;;;;22.80;99.90;;;;;;5094890;28;20340;-82
2021/06/10 14:10:28;;;;;;;;;;;22.70;99.90;;;;;;5095070;28;19920;-82
2021/06/10 14:12:54;;;;;;;;;;;22.50;99.90;;;;;;5095047;28;20017;-82
2021/06/10 14:15:21;;;;;;;;;;;22.40;99.90;;;;;;5095104;28;19995;-83
2021/06/10 14:17:49;;;;;;;;;;;22.40;99.90;;;;;;5095053;28;19920;-82